createdAt,value
2024-05-09T00:00:40.592Z,47.88
2024-05-09T00:03:10.101Z,45.67
2024-05-09T00:05:38.598Z,44.13
2024-05-09T00:08:06.298Z,43.28
2024-05-09T00:10:37.123Z,45.10
2024-05-09T00:13:10.668Z,46.10
2024-05-09T00:15:38.238Z,41.88
2024-05-09T00:18:07.386Z,47.15
2024-05-09T00:20:39.050Z,46.20
2024-05-09T00:23:12.897Z,45.45
2024-05-09T00:25:42.923Z,45.30
2024-05-09T00:28:10.055Z,43.15
2024-05-09T00:30:37.576Z,43.97
2024-05-09T00:33:06.985Z,40.47
2024-05-09T00:35:35.487Z,44.83
2024-05-09T00:38:02.482Z,43.58
2024-05-09T00:40:41.603Z,43.50
2024-05-09T00:43:14.793Z,48.40
2024-05-09T00:45:43.160Z,45.03
2024-05-09T00:48:14.311Z,41.80
2024-05-09T00:50:44.800Z,45.78
2024-05-09T00:53:14.212Z,56.63
2024-05-09T00:55:41.826Z,53.78
2024-05-09T00:58:12.005Z,62.13
2024-05-09T01:05:10.852Z,59.05
2024-05-09T01:07:37.686Z,57.63
2024-05-09T01:10:09.028Z,62.50
2024-05-09T01:12:38.910Z,63.55
2024-05-09T01:15:06.362Z,59.90
2024-05-09T01:17:33.265Z,52.45
2024-05-09T01:20:00.233Z,57.65
2024-05-09T01:22:28.719Z,59.97
2024-05-09T01:24:55.492Z,56.50
2024-05-09T01:27:22.418Z,57.10
2024-05-09T01:29:49.178Z,51.13
2024-05-09T01:32:16.031Z,59.17
2024-05-09T01:34:42.896Z,52.90
2024-05-09T01:37:09.759Z,50.13
2024-05-09T01:39:36.511Z,55.17
2024-05-09T01:42:03.624Z,54.28
2024-05-09T01:44:30.530Z,57.78
2024-05-09T01:46:57.433Z,54.40
2024-05-09T01:49:24.362Z,60.08
2024-05-09T01:51:51.225Z,51.75
2024-05-09T01:54:18.004Z,49.25
2024-05-09T01:56:44.783Z,66.45
2024-05-09T01:59:11.805Z,56.75
2024-05-09T02:01:56.197Z,74.18
2024-05-09T02:04:24.786Z,69.90
2024-05-09T02:06:51.676Z,75.97
2024-05-09T02:09:18.456Z,67.80
2024-05-09T02:11:47.953Z,78.70
2024-05-09T02:14:18.142Z,66.05
2024-05-09T02:16:45.019Z,67.85
2024-05-09T02:19:12.092Z,69.28
2024-05-09T02:21:40.326Z,75.22
2024-05-09T02:24:07.455Z,66.80
2024-05-09T02:26:34.274Z,80.68
2024-05-09T02:29:01.089Z,63.88
2024-05-09T02:31:27.912Z,74.47
2024-05-09T02:33:54.853Z,81.80
2024-05-09T02:36:22.529Z,79.90
2024-05-09T02:38:49.284Z,81.70
2024-05-09T02:41:16.147Z,79.40
2024-05-09T02:43:42.998Z,75.38
2024-05-09T02:46:09.851Z,70.20
2024-05-09T02:48:36.763Z,92.53
2024-05-09T02:51:04.486Z,86.68
2024-05-09T02:53:31.467Z,92.00
2024-05-09T02:55:58.553Z,80.43
2024-05-09T02:58:25.414Z,68.40
2024-05-09T03:00:52.312Z,74.03
2024-05-09T03:03:19.471Z,79.40
2024-05-09T03:05:46.917Z,82.85
2024-05-09T03:08:14.252Z,88.10
2024-05-09T03:10:41.392Z,88.75
2024-05-09T03:13:15.055Z,67.45
2024-05-09T03:15:44.008Z,90.05
2024-05-09T03:18:11.573Z,98.25
2024-05-09T03:20:39.153Z,95.50
2024-05-09T03:23:09.217Z,90.47
2024-05-09T03:25:37.419Z,93.40
2024-05-09T03:28:04.615Z,89.38
2024-05-09T03:30:39.812Z,74.13
2024-05-09T03:33:18.788Z,87.00
2024-05-09T03:35:48.705Z,89.25
2024-05-09T03:38:16.252Z,110.90
2024-05-09T03:40:49.111Z,91.05
2024-05-09T03:43:17.506Z,101.22
2024-05-09T03:45:44.844Z,129.50
2024-05-09T03:48:12.125Z,91.80
2024-05-09T03:50:39.374Z,94.65
2024-05-09T03:53:10.331Z,103.07
2024-05-09T03:55:37.120Z,105.43
2024-05-09T03:58:05.244Z,128.07
2024-05-09T04:00:38.014Z,126.90
2024-05-09T04:03:09.831Z,135.68
2024-05-09T04:05:40.845Z,131.73
2024-05-09T04:08:09.521Z,133.00
2024-05-09T04:10:36.532Z,133.48
2024-05-09T04:13:04.254Z,132.95
2024-05-09T04:15:31.583Z,142.10
2024-05-09T04:17:58.765Z,116.97
2024-05-09T04:20:35.977Z,156.35
2024-05-09T04:23:07.871Z,119.78
2024-05-09T04:25:35.311Z,116.40
2024-05-09T04:28:02.317Z,106.90
2024-05-09T04:30:36.849Z,162.27
2024-05-09T04:33:08.633Z,104.40
2024-05-09T04:35:37.824Z,122.20
2024-05-09T04:38:05.533Z,128.07
2024-05-09T04:40:35.672Z,127.82
2024-05-09T04:43:05.690Z,138.30
2024-05-09T04:45:33.095Z,115.22
2024-05-09T04:48:00.390Z,95.93
2024-05-09T04:50:36.066Z,103.28
2024-05-09T04:53:08.219Z,103.15
2024-05-09T04:55:36.746Z,87.53
2024-05-09T04:58:03.760Z,79.57
2024-05-09T05:00:36.323Z,67.53
2024-05-09T05:03:13.912Z,61.33
2024-05-09T05:05:43.999Z,56.70
2024-05-09T05:08:16.488Z,55.75
2024-05-09T05:10:44.437Z,50.88
2024-05-09T05:13:24.885Z,47.63
2024-05-09T05:15:56.947Z,46.85
2024-05-09T05:18:26.496Z,47.47
2024-05-09T05:20:55.434Z,47.55
2024-05-09T05:23:23.364Z,47.17
2024-05-09T05:25:53.103Z,45.70
2024-05-09T05:28:20.688Z,42.55
2024-05-09T05:30:47.680Z,44.47
2024-05-09T05:33:16.259Z,39.08
2024-05-09T05:35:43.397Z,40.55
2024-05-09T05:38:11.143Z,37.08
2024-05-09T05:40:39.362Z,41.28
2024-05-09T05:43:09.465Z,41.20
2024-05-09T05:45:36.972Z,37.47
2024-05-09T05:48:06.091Z,37.75
2024-05-09T05:50:36.784Z,37.83
2024-05-09T05:53:09.954Z,35.70
2024-05-09T05:55:40.091Z,34.40
2024-05-09T05:58:11.902Z,33.67
2024-05-09T06:00:41.952Z,33.05
2024-05-09T06:03:10.473Z,34.40
2024-05-09T06:05:40.146Z,35.85
2024-05-09T06:08:07.908Z,36.00
2024-05-09T06:10:38.951Z,34.85
2024-05-09T06:13:13.215Z,31.63
2024-05-09T06:15:41.203Z,35.20
2024-05-09T06:18:09.983Z,30.83
2024-05-09T06:20:39.621Z,36.33
2024-05-09T06:23:07.468Z,33.80
2024-05-09T06:25:36.082Z,30.95
2024-05-09T06:28:03.348Z,35.83
2024-05-09T06:30:37.803Z,31.98
2024-05-09T06:33:10.501Z,32.97
2024-05-09T06:35:38.991Z,31.80
2024-05-09T06:38:09.020Z,30.83
2024-05-09T06:40:38.975Z,30.92
2024-05-09T06:43:18.782Z,33.03
2024-05-09T06:45:53.895Z,30.75
2024-05-09T06:48:21.937Z,34.28
2024-05-09T06:50:50.367Z,30.45
2024-05-09T06:53:20.959Z,34.70
2024-05-09T06:55:47.889Z,32.20
2024-05-09T06:58:15.044Z,31.45
2024-05-09T07:00:42.453Z,31.63
2024-05-09T07:03:17.016Z,31.75
2024-05-09T07:05:47.558Z,30.95
2024-05-09T07:08:16.001Z,34.22
2024-05-09T07:10:43.032Z,34.88
2024-05-09T07:13:14.915Z,34.20
2024-05-09T07:15:42.632Z,32.28
2024-05-09T07:18:18.288Z,32.03
2024-05-09T07:20:47.162Z,34.10
2024-05-09T07:23:15.251Z,34.08
2024-05-09T07:25:42.822Z,38.35
2024-05-09T07:28:18.087Z,33.67
2024-05-09T07:30:45.659Z,32.95
2024-05-09T07:33:22.740Z,31.38
2024-05-09T07:35:51.148Z,34.40
2024-05-09T07:38:18.035Z,31.42
2024-05-09T07:40:44.984Z,30.08
2024-05-09T07:43:12.900Z,31.02
2024-05-09T07:45:49.578Z,31.23
2024-05-09T07:53:39.297Z,30.67
2024-05-09T07:56:10.267Z,32.33
2024-05-09T07:58:38.772Z,32.97
2024-05-09T08:01:05.851Z,30.45
2024-05-09T08:03:34.237Z,30.77
2024-05-09T08:06:01.378Z,26.98
2024-05-09T08:08:28.229Z,32.17
2024-05-09T08:10:55.117Z,30.35
2024-05-09T08:13:22.140Z,33.90
2024-05-09T08:15:49.132Z,29.08
2024-05-09T08:18:17.163Z,29.20
2024-05-09T08:20:49.805Z,31.83
2024-05-09T08:23:16.589Z,31.65
2024-05-09T08:25:43.965Z,34.75
2024-05-09T08:28:12.054Z,30.00
2024-05-09T08:30:39.210Z,29.15
2024-05-09T08:33:07.465Z,28.55
2024-05-09T08:35:35.661Z,28.92
2024-05-09T08:38:03.638Z,29.20
2024-05-09T08:40:35.610Z,25.88
2024-05-09T08:43:11.698Z,27.50
2024-05-09T08:45:44.171Z,28.88
2024-05-09T08:48:14.710Z,32.15
2024-05-09T08:50:43.277Z,29.40
2024-05-09T08:53:10.335Z,30.67
2024-05-09T08:55:40.833Z,31.70
2024-05-09T08:58:20.380Z,25.35
2024-05-09T09:00:47.828Z,25.17
2024-05-09T09:03:18.586Z,27.48
2024-05-09T09:05:56.238Z,27.13
2024-05-09T09:08:23.200Z,26.90
2024-05-09T09:10:52.974Z,26.17
2024-05-09T09:13:20.213Z,23.25
2024-05-09T09:15:50.860Z,28.63
2024-05-09T09:18:18.992Z,24.75
2024-05-09T09:20:46.735Z,23.67
2024-05-09T09:23:14.177Z,25.88
2024-05-09T09:25:41.282Z,25.95
2024-05-09T09:28:09.448Z,23.45
2024-05-09T09:30:40.957Z,21.08
2024-05-09T09:33:12.031Z,20.00
2024-05-09T09:35:40.740Z,17.42
2024-05-09T09:38:10.078Z,15.25
2024-05-09T09:40:45.098Z,18.15
2024-05-09T09:43:22.099Z,19.08
2024-05-09T09:45:52.917Z,18.97
2024-05-09T09:48:21.751Z,21.95
2024-05-09T09:50:51.448Z,21.48
2024-05-09T09:53:19.548Z,24.17
2024-05-09T09:55:46.830Z,22.38
2024-05-09T09:58:17.573Z,21.80
2024-05-09T10:00:45.276Z,20.05
2024-05-09T10:03:12.465Z,20.77
2024-05-09T10:05:42.186Z,22.60
2024-05-09T10:08:12.072Z,23.80
2024-05-09T10:10:39.225Z,20.65
2024-05-09T10:13:07.778Z,26.42
2024-05-09T10:15:54.520Z,24.48
2024-05-09T10:18:27.256Z,23.55
2024-05-09T10:20:56.430Z,20.60
2024-05-09T10:23:32.442Z,21.08
2024-05-09T10:26:02.748Z,21.88
2024-05-09T10:28:37.548Z,16.52
2024-05-09T10:31:15.789Z,18.05
2024-05-09T10:33:51.373Z,17.77
2024-05-09T10:36:20.979Z,19.85
2024-05-09T10:38:49.655Z,16.83
2024-05-09T10:41:17.612Z,12.82
2024-05-09T10:43:44.589Z,12.90
2024-05-09T10:46:12.424Z,10.90
2024-05-09T10:48:41.665Z,11.18
2024-05-09T10:51:09.407Z,15.02
2024-05-09T10:53:46.189Z,9.35
2024-05-09T10:56:17.391Z,11.38
2024-05-09T10:58:44.560Z,9.63
2024-05-09T11:01:13.285Z,11.50
2024-05-09T11:03:40.667Z,10.25
2024-05-09T11:06:09.775Z,11.00
2024-05-09T11:08:37.794Z,11.93
2024-05-09T11:11:07.773Z,10.90
2024-05-09T11:13:38.097Z,11.63
2024-05-09T11:16:15.835Z,12.05
2024-05-09T11:18:43.490Z,13.25
2024-05-09T11:21:14.105Z,13.15
2024-05-09T11:23:41.583Z,12.40
2024-05-09T11:26:09.138Z,13.88
2024-05-09T11:28:36.200Z,14.65
2024-05-09T11:31:10.508Z,11.82
2024-05-09T11:33:39.770Z,10.30
2024-05-09T11:36:08.000Z,12.55
2024-05-09T11:38:35.066Z,12.15
2024-05-09T11:41:03.192Z,12.00
2024-05-09T11:43:30.067Z,12.07
2024-05-09T11:46:01.059Z,14.50
2024-05-09T11:48:28.413Z,11.07
2024-05-09T11:50:56.986Z,10.95
2024-05-09T11:53:23.974Z,11.23
2024-05-09T11:55:50.787Z,13.05
2024-05-09T11:58:18.947Z,12.52
2024-05-09T12:00:46.984Z,10.80
2024-05-09T12:03:14.499Z,10.82
2024-05-09T12:05:41.745Z,11.20
2024-05-09T12:08:08.947Z,11.80
2024-05-09T12:10:36.879Z,10.75
2024-05-09T12:13:05.979Z,10.63
2024-05-09T12:15:37.282Z,10.82
2024-05-09T12:18:05.912Z,10.45
2024-05-09T12:20:37.591Z,10.27
2024-05-09T12:23:08.856Z,11.73
2024-05-09T12:25:37.230Z,8.30
2024-05-09T12:28:04.532Z,9.32
2024-05-09T12:30:36.931Z,10.55
2024-05-09T12:33:12.529Z,8.65
2024-05-09T12:35:41.764Z,9.73
2024-05-09T12:38:10.006Z,11.05
2024-05-09T12:40:38.939Z,8.35
2024-05-09T12:43:08.465Z,10.88
2024-05-09T12:45:36.587Z,10.00
2024-05-09T12:48:06.885Z,15.20
2024-05-09T12:50:34.761Z,12.73
2024-05-09T12:53:03.360Z,9.48
2024-05-09T12:55:40.255Z,7.88
2024-05-09T12:58:18.549Z,10.90
2024-05-09T13:00:46.409Z,9.95
2024-05-09T13:03:13.788Z,10.15
2024-05-09T13:05:46.934Z,10.50
2024-05-09T13:08:13.946Z,10.52
2024-05-09T13:10:41.282Z,10.35
2024-05-09T13:13:10.536Z,10.20
2024-05-09T13:15:37.964Z,9.63
2024-05-09T13:18:05.939Z,10.18
2024-05-09T13:20:35.470Z,10.27
2024-05-09T13:23:05.659Z,9.52
2024-05-09T13:25:34.904Z,11.13
2024-05-09T13:28:03.361Z,12.68
2024-05-09T13:30:38.827Z,14.38
2024-05-09T13:33:10.299Z,13.27
2024-05-09T13:35:38.043Z,16.15
2024-05-09T13:38:05.515Z,15.98
2024-05-09T13:40:35.125Z,15.65
2024-05-09T13:43:06.712Z,19.20
2024-05-09T13:45:34.387Z,15.43
2024-05-09T13:48:06.538Z,14.30
2024-05-09T13:50:36.172Z,16.33
2024-05-09T13:53:06.518Z,14.30
2024-05-09T13:55:35.354Z,17.98
2024-05-09T13:58:02.951Z,17.40
2024-05-09T14:02:59.775Z,17.45
2024-05-09T14:05:26.695Z,16.25
2024-05-09T14:07:53.588Z,19.38
2024-05-09T14:10:26.152Z,17.63
2024-05-09T14:12:57.638Z,15.65
2024-05-09T14:15:24.467Z,15.88
2024-05-09T14:17:51.460Z,15.73
2024-05-09T14:20:28.223Z,14.80
2024-05-09T14:22:58.816Z,14.05
2024-05-09T14:25:35.209Z,18.58
2024-05-09T14:28:04.071Z,16.40
2024-05-09T14:30:36.651Z,19.17
2024-05-09T14:33:06.500Z,14.43
2024-05-09T14:35:34.407Z,16.30
2024-05-09T14:38:01.459Z,15.60
2024-05-09T14:40:38.831Z,18.42
2024-05-09T14:43:14.752Z,14.68
2024-05-09T14:45:43.316Z,15.68
2024-05-09T14:48:11.844Z,14.68
2024-05-09T14:50:40.419Z,15.75
2024-05-09T14:53:12.511Z,16.00
2024-05-09T14:55:41.504Z,16.05
2024-05-09T14:58:10.558Z,14.73
2024-05-09T15:00:46.715Z,15.27
2024-05-09T15:03:19.417Z,16.60
2024-05-09T15:05:47.222Z,16.10
2024-05-09T15:08:14.135Z,15.82
2024-05-09T15:10:41.207Z,16.50
2024-05-09T15:13:09.844Z,14.77
2024-05-09T15:15:38.365Z,14.80
2024-05-09T15:18:06.313Z,16.92
2024-05-09T15:20:36.551Z,15.80
2024-05-09T15:23:06.728Z,16.30
2024-05-09T15:25:35.846Z,15.73
2024-05-09T15:28:03.933Z,13.55
2024-05-09T15:30:33.173Z,15.27
2024-05-09T15:33:03.836Z,14.25
2024-05-09T15:35:31.432Z,14.23
2024-05-09T15:37:58.375Z,13.55
2024-05-09T15:40:34.477Z,15.30
2024-05-09T15:43:06.892Z,17.10
2024-05-09T15:45:34.265Z,16.58
2024-05-09T15:48:02.457Z,15.93
2024-05-09T15:50:36.894Z,16.55
2024-05-09T15:53:08.312Z,17.90
2024-05-09T15:55:36.053Z,17.30
2024-05-09T15:58:04.379Z,15.60
2024-05-09T16:00:37.798Z,17.27
2024-05-09T16:03:13.104Z,19.45
2024-05-09T16:05:41.791Z,17.48
2024-05-09T16:08:09.249Z,20.15
2024-05-09T16:10:38.690Z,18.23
2024-05-09T16:13:06.157Z,16.67
2024-05-09T16:15:33.141Z,18.90
2024-05-09T16:18:01.021Z,15.60
2024-05-09T16:20:37.442Z,14.45
2024-05-09T16:23:08.152Z,12.63
2024-05-09T16:25:35.389Z,15.73
2024-05-09T16:28:07.045Z,14.18
2024-05-09T16:30:36.829Z,14.30
2024-05-09T16:33:05.208Z,12.40
2024-05-09T16:35:32.901Z,13.23
2024-05-09T16:38:02.589Z,14.70
2024-05-09T16:40:36.669Z,16.13
2024-05-09T16:43:07.425Z,13.57
2024-05-09T16:45:34.767Z,14.00
2024-05-09T16:48:02.081Z,12.13
2024-05-09T16:50:33.871Z,17.40
2024-05-09T16:53:04.381Z,14.13
2024-05-09T16:55:31.772Z,14.85
2024-05-09T16:57:58.874Z,14.23
2024-05-09T17:00:35.902Z,12.80
2024-05-09T17:03:10.050Z,13.60
2024-05-09T17:05:38.089Z,12.95
2024-05-09T17:08:06.103Z,41.67
2024-05-09T17:10:34.964Z,11.75
2024-05-09T17:13:04.613Z,12.07
2024-05-09T17:15:33.310Z,11.93
2024-05-09T17:18:01.396Z,13.65
2024-05-09T17:20:33.283Z,13.48
2024-05-09T17:23:04.417Z,10.43
2024-05-09T17:25:31.667Z,9.85
2024-05-09T17:28:05.313Z,10.13
2024-05-09T17:30:36.756Z,11.07
2024-05-09T17:33:07.207Z,10.15
2024-05-09T17:35:36.371Z,11.20
2024-05-09T17:38:06.913Z,16.90
2024-05-09T17:40:36.655Z,11.73
2024-05-09T17:43:07.680Z,11.07
2024-05-09T17:45:39.699Z,8.85
2024-05-09T17:48:09.415Z,8.40
2024-05-09T17:50:37.777Z,8.25
2024-05-09T17:53:06.177Z,10.15
2024-05-09T17:55:33.301Z,12.15
2024-05-09T17:58:00.711Z,9.18
2024-05-09T18:00:37.002Z,12.20
2024-05-09T18:03:08.408Z,9.00
2024-05-09T18:05:36.954Z,12.88
2024-05-09T18:08:08.342Z,11.55
2024-05-09T18:10:38.616Z,12.40
2024-05-09T18:13:09.691Z,9.75
2024-05-09T18:15:37.604Z,9.25
2024-05-09T18:18:05.999Z,10.52
2024-05-09T18:20:41.594Z,13.38
2024-05-09T18:23:16.764Z,12.32
2024-05-09T18:25:46.173Z,13.02
2024-05-09T18:28:13.566Z,14.05
2024-05-09T18:30:41.068Z,13.00
2024-05-09T18:33:10.699Z,12.43
2024-05-09T18:35:38.096Z,12.50
2024-05-09T18:38:05.468Z,14.10
2024-05-09T18:40:36.163Z,13.52
2024-05-09T18:43:07.736Z,14.13
2024-05-09T18:45:38.091Z,13.02
2024-05-09T18:48:07.399Z,14.63
2024-05-09T18:50:38.847Z,16.35
2024-05-09T18:53:12.818Z,15.18
2024-05-09T18:55:43.635Z,14.52
2024-05-09T18:58:10.887Z,16.63
2024-05-09T19:00:40.437Z,16.27
2024-05-09T19:03:12.627Z,15.70
2024-05-09T19:05:45.777Z,16.42
2024-05-09T19:08:14.402Z,14.75
2024-05-09T19:10:41.614Z,19.23
2024-05-09T19:13:12.048Z,18.45
2024-05-09T19:15:41.956Z,15.32
2024-05-09T19:18:10.477Z,15.48
2024-05-09T19:20:38.155Z,17.25
2024-05-09T19:23:06.844Z,20.02
2024-05-09T19:25:34.937Z,16.75
2024-05-09T19:28:03.030Z,20.40
2024-05-09T19:30:38.092Z,20.17
2024-05-09T19:33:10.816Z,20.23
2024-05-09T19:35:38.959Z,21.17
2024-05-09T19:38:06.097Z,20.98
2024-05-09T19:40:34.493Z,20.20
2024-05-09T19:43:03.255Z,23.20
2024-05-09T19:45:32.748Z,24.70
2024-05-09T19:48:00.107Z,22.25
2024-05-09T19:50:36.429Z,21.08
2024-05-09T19:53:08.706Z,20.17
2024-05-09T19:55:35.536Z,23.25
2024-05-09T19:58:05.354Z,25.02
2024-05-09T20:00:41.044Z,22.83
2024-05-09T20:03:11.867Z,26.25
2024-05-09T20:05:39.535Z,23.20
2024-05-09T20:08:07.213Z,23.95
2024-05-09T20:10:35.797Z,22.10
2024-05-09T20:13:06.252Z,21.15
2024-05-09T20:15:35.687Z,24.52
2024-05-09T20:18:03.011Z,21.92
2024-05-09T20:20:37.384Z,25.90
2024-05-09T20:23:08.865Z,27.20
2024-05-09T20:25:35.794Z,26.02
2024-05-09T20:28:03.090Z,25.92
2024-05-09T20:30:32.924Z,26.77
2024-05-09T20:33:07.327Z,23.23
2024-05-09T20:35:35.739Z,25.67
2024-05-09T20:38:03.601Z,26.65
2024-05-09T20:40:35.249Z,25.10
2024-05-09T20:43:08.426Z,23.90
2024-05-09T20:45:35.921Z,22.77
2024-05-09T20:48:03.274Z,23.35
2024-05-09T20:50:37.518Z,26.75
2024-05-09T20:53:11.093Z,26.40
2024-05-09T20:55:39.378Z,24.98
2024-05-09T20:58:06.226Z,24.85
2024-05-09T21:00:39.888Z,23.67
2024-05-09T21:03:10.296Z,25.58
2024-05-09T21:05:37.566Z,28.60
2024-05-09T21:08:04.872Z,22.95
2024-05-09T21:10:33.482Z,20.50
2024-05-09T21:13:03.114Z,24.80
2024-05-09T21:15:31.174Z,23.23
2024-05-09T21:17:58.490Z,22.80
2024-05-09T21:20:31.088Z,21.45
2024-05-09T21:23:00.337Z,23.45
2024-05-09T21:25:27.305Z,22.25
2024-05-09T21:27:54.326Z,24.42
2024-05-09T21:30:31.917Z,27.25
2024-05-09T21:33:10.111Z,21.77
2024-05-09T21:35:38.376Z,23.58
2024-05-09T21:38:05.726Z,20.40
2024-05-09T21:40:35.303Z,21.02
2024-05-09T21:43:04.898Z,22.17
2024-05-09T21:45:32.367Z,20.20
2024-05-09T21:47:59.563Z,21.98
2024-05-09T21:50:36.295Z,24.33
2024-05-09T21:53:07.397Z,20.38
2024-05-09T21:55:34.495Z,20.35
2024-05-09T21:58:01.659Z,20.13
2024-05-09T22:00:35.501Z,22.42
2024-05-09T22:03:06.338Z,24.95
2024-05-09T22:05:33.596Z,22.55
2024-05-09T22:08:00.877Z,20.83
2024-05-09T22:10:33.732Z,22.25
2024-05-09T22:13:03.571Z,22.00
2024-05-09T22:15:33.639Z,23.60
2024-05-09T22:18:00.962Z,21.48
2024-05-09T22:20:34.413Z,21.88
2024-05-09T22:23:05.133Z,24.17
2024-05-09T22:25:32.732Z,21.65
2024-05-09T22:28:01.871Z,24.27
2024-05-09T22:30:35.853Z,22.95
2024-05-09T22:33:11.064Z,22.70
2024-05-09T22:35:40.046Z,22.30
2024-05-09T22:38:07.063Z,23.42
2024-05-09T22:40:43.364Z,22.27
2024-05-09T22:43:23.324Z,25.67
2024-05-09T22:45:53.752Z,25.30
2024-05-09T22:48:21.238Z,25.17
2024-05-09T22:50:48.564Z,24.05
2024-05-09T22:53:15.509Z,25.27
2024-05-09T22:55:42.595Z,27.67
2024-05-09T22:58:09.571Z,27.40
2024-05-09T23:00:36.561Z,26.73
2024-05-09T23:03:03.712Z,31.45
2024-05-09T23:05:32.697Z,28.05
2024-05-09T23:08:02.038Z,27.20
2024-05-09T23:10:35.568Z,31.27
2024-05-09T23:13:06.175Z,31.80
2024-05-09T23:15:33.291Z,25.60
2024-05-09T23:18:00.364Z,28.33
2024-05-09T23:20:36.047Z,35.50
2024-05-09T23:23:07.081Z,26.25
2024-05-09T23:25:34.474Z,29.27
2024-05-09T23:28:01.979Z,34.95
2024-05-09T23:30:36.629Z,28.88
2024-05-09T23:33:07.214Z,30.67
2024-05-09T23:35:34.284Z,35.20
2024-05-09T23:38:01.151Z,33.35
2024-05-09T23:40:37.494Z,31.23
2024-05-09T23:43:11.875Z,36.50
2024-05-09T23:45:39.645Z,32.58
2024-05-09T23:48:07.459Z,36.05
2024-05-09T23:50:37.553Z,39.22
2024-05-09T23:53:07.810Z,51.08
2024-05-09T23:55:35.810Z,39.40
2024-05-09T23:58:02.747Z,33.72
